<?xml version="1.0" encoding="UTF-8" standalone="no" ?>
<gpx xmlns="http://www.topografix.com/GPX/1/1" xmlns:xsi="http://www.w3.org/2001/XMLSchema-instance" xsi:schemaLocation="http://www.topografix.com/GPX/1/1 http://www.topografix.com/GPX/1/1/gpx.xsd" version="1.1" creator="VisuGPX - https://www.visugpx.com">
  <metadata>
    <name>Suède</name>
  </metadata>
  <trk>
    <name><![CDATA[Tour d'Europe: étape 084]]></name>
    <trkseg>
      <trkpt lat="67.49186" lon="21.12051">
        <ele>398.750498</ele>
        <time>2020-09-20T10:12:38.562Z</time>
      </trkpt>
      <trkpt lat="67.49069" lon="21.11994">
        <ele>395.904088</ele>
        <time>2020-09-20T10:24:29.546Z</time>
      </trkpt>
      <trkpt lat="67.48944" lon="21.12072">
        <ele>395.667373</ele>
        <time>2020-09-20T10:25:39.550Z</time>
      </trkpt>
      <trkpt lat="67.48721" lon="21.12066">
        <ele>399.82485</ele>
        <time>2020-09-20T10:26:39.567Z</time>
      </trkpt>
      <trkpt lat="67.48526" lon="21.12125">
        <ele>405.615047</ele>
        <time>2020-09-20T10:27:40.557Z</time>
      </trkpt>
      <trkpt lat="67.48313" lon="21.1226">
        <ele>406.078803</ele>
        <time>2020-09-20T10:28:40.592Z</time>
      </trkpt>
      <trkpt lat="67.48115" lon="21.12452">
        <ele>401.512961</ele>
        <time>2020-09-20T10:29:23.576Z</time>
      </trkpt>
      <trkpt lat="67.47902" lon="21.1265">
        <ele>396.979659</ele>
        <time>2020-09-20T10:30:03.573Z</time>
      </trkpt>
      <trkpt lat="67.47689" lon="21.12794">
        <ele>400.170594</ele>
        <time>2020-09-20T10:30:53.582Z</time>
      </trkpt>
      <trkpt lat="67.47482" lon="21.12858">
        <ele>406.952164</ele>
        <time>2020-09-20T10:32:10.580Z</time>
      </trkpt>
      <trkpt lat="67.47271" lon="21.12791">
        <ele>416.502763</ele>
        <time>2020-09-20T10:33:36.580Z</time>
      </trkpt>
      <trkpt lat="67.47079" lon="21.12615">
        <ele>421.261124</ele>
        <time>2020-09-20T10:34:54.586Z</time>
      </trkpt>
      <trkpt lat="67.46866" lon="21.12462">
        <ele>417.378865</ele>
        <time>2020-09-20T10:35:54.558Z</time>
      </trkpt>
      <trkpt lat="67.46641" lon="21.12422">
        <ele>418.806582</ele>
        <time>2020-09-20T10:36:54.597Z</time>
      </trkpt>
      <trkpt lat="67.46404" lon="21.12474">
        <ele>419.188032</ele>
        <time>2020-09-20T10:37:49.546Z</time>
      </trkpt>
      <trkpt lat="67.46195" lon="21.12513">
        <ele>421.641586</ele>
        <time>2020-09-20T10:38:49.572Z</time>
      </trkpt>
      <trkpt lat="67.45997" lon="21.12454">
        <ele>426.228372</ele>
        <time>2020-09-20T10:39:51.543Z</time>
      </trkpt>
      <trkpt lat="67.45794" lon="21.12319">
        <ele>430.530699</ele>
        <time>2020-09-20T10:40:58.565Z</time>
      </trkpt>
      <trkpt lat="67.45579" lon="21.12253">
        <ele>437.05777</ele>
        <time>2020-09-20T10:42:18.557Z</time>
      </trkpt>
      <trkpt lat="67.45369" lon="21.12223">
        <ele>437.760091</ele>
        <time>2020-09-20T10:43:26.566Z</time>
      </trkpt>
      <trkpt lat="67.45137" lon="21.12185">
        <ele>436.792561</ele>
        <time>2020-09-20T10:44:26.594Z</time>
      </trkpt>
      <trkpt lat="67.44906" lon="21.12141">
        <ele>434.830378</ele>
        <time>2020-09-20T10:45:26.552Z</time>
      </trkpt>
      <trkpt lat="67.44698" lon="21.12064">
        <ele>437.588079</ele>
        <time>2020-09-20T10:46:26.566Z</time>
      </trkpt>
      <trkpt lat="67.4448" lon="21.11856">
        <ele>436.175559</ele>
        <time>2020-09-20T10:47:26.576Z</time>
      </trkpt>
      <trkpt lat="67.44287" lon="21.11685">
        <ele>432.269214</ele>
        <time>2020-09-20T10:48:11.576Z</time>
      </trkpt>
      <trkpt lat="67.44055" lon="21.11616">
        <ele>435.560346</ele>
        <time>2020-09-20T10:49:05.614Z</time>
      </trkpt>
      <trkpt lat="67.43836" lon="21.11636">
        <ele>431.451307</ele>
        <time>2020-09-20T10:49:45.562Z</time>
      </trkpt>
      <trkpt lat="67.43632" lon="21.11819">
        <ele>431.564503</ele>
        <time>2020-09-20T10:50:32.619Z</time>
      </trkpt>
      <trkpt lat="67.43425" lon="21.12165">
        <ele>431.782185</ele>
        <time>2020-09-20T10:51:12.558Z</time>
      </trkpt>
      <trkpt lat="67.43233" lon="21.1252">
        <ele>421.408747</ele>
        <time>2020-09-20T10:51:54.585Z</time>
      </trkpt>
      <trkpt lat="67.43036" lon="21.1282">
        <ele>417.590109</ele>
        <time>2020-09-20T10:52:34.575Z</time>
      </trkpt>
      <trkpt lat="67.42843" lon="21.13071">
        <ele>416.007135</ele>
        <time>2020-09-20T10:53:14.562Z</time>
      </trkpt>
      <trkpt lat="67.42665" lon="21.13313">
        <ele>415.472253</ele>
        <time>2020-09-20T10:53:55.565Z</time>
      </trkpt>
      <trkpt lat="67.42472" lon="21.13551">
        <ele>417.120634</ele>
        <time>2020-09-20T10:54:40.573Z</time>
      </trkpt>
      <trkpt lat="67.42252" lon="21.13724">
        <ele>415.317213</ele>
        <time>2020-09-20T10:55:31.559Z</time>
      </trkpt>
      <trkpt lat="67.42035" lon="21.13588">
        <ele>407.176361</ele>
        <time>2020-09-20T10:56:16.572Z</time>
      </trkpt>
      <trkpt lat="67.41874" lon="21.13227">
        <ele>410.870841</ele>
        <time>2020-09-20T10:57:18.548Z</time>
      </trkpt>
      <trkpt lat="67.41809" lon="21.1273">
        <ele>410.325413</ele>
        <time>2020-09-20T10:58:19.552Z</time>
      </trkpt>
      <trkpt lat="67.41757" lon="21.12184">
        <ele>414.024567</ele>
        <time>2020-09-20T10:59:19.594Z</time>
      </trkpt>
      <trkpt lat="67.41653" lon="21.1174">
        <ele>421.719546</ele>
        <time>2020-09-20T11:00:56.592Z</time>
      </trkpt>
      <trkpt lat="67.41503" lon="21.11418">
        <ele>421.237423</ele>
        <time>2020-09-20T11:02:05.580Z</time>
      </trkpt>
      <trkpt lat="67.41316" lon="21.11184">
        <ele>417.726754</ele>
        <time>2020-09-20T11:02:48.559Z</time>
      </trkpt>
      <trkpt lat="67.41122" lon="21.10898">
        <ele>412.66896</ele>
        <time>2020-09-20T11:03:28.551Z</time>
      </trkpt>
      <trkpt lat="67.40939" lon="21.10595">
        <ele>412.943835</ele>
        <time>2020-09-20T11:04:16.585Z</time>
      </trkpt>
      <trkpt lat="67.40741" lon="21.10455">
        <ele>416.060069</ele>
        <time>2020-09-20T11:05:00.544Z</time>
      </trkpt>
      <trkpt lat="67.40507" lon="21.10499">
        <ele>417.798987</ele>
        <time>2020-09-20T11:05:57.579Z</time>
      </trkpt>
      <trkpt lat="67.40316" lon="21.10727">
        <ele>417.066373</ele>
        <time>2020-09-20T11:06:38.539Z</time>
      </trkpt>
      <trkpt lat="67.40127" lon="21.10964">
        <ele>413.991972</ele>
        <time>2020-09-20T11:07:18.556Z</time>
      </trkpt>
      <trkpt lat="67.39895" lon="21.11083">
        <ele>419.786765</ele>
        <time>2020-09-20T11:08:13.549Z</time>
      </trkpt>
      <trkpt lat="67.3965" lon="21.11027">
        <ele>421.934754</ele>
        <time>2020-09-20T11:09:13.566Z</time>
      </trkpt>
      <trkpt lat="67.39437" lon="21.10842">
        <ele>418.259341</ele>
        <time>2020-09-20T11:10:10.566Z</time>
      </trkpt>
      <trkpt lat="67.39237" lon="21.10522">
        <ele>419.565686</ele>
        <time>2020-09-20T11:11:10.568Z</time>
      </trkpt>
      <trkpt lat="67.39051" lon="21.10219">
        <ele>421.145715</ele>
        <time>2020-09-20T11:12:01.567Z</time>
      </trkpt>
      <trkpt lat="67.38858" lon="21.09916">
        <ele>425.916918</ele>
        <time>2020-09-20T11:13:04.599Z</time>
      </trkpt>
      <trkpt lat="67.38698" lon="21.09548">
        <ele>433.412666</ele>
        <time>2020-09-20T11:14:24.558Z</time>
      </trkpt>
      <trkpt lat="67.38574" lon="21.09094">
        <ele>431.966996</ele>
        <time>2020-09-20T11:15:31.562Z</time>
      </trkpt>
      <trkpt lat="67.38476" lon="21.0861">
        <ele>435.810176</ele>
        <time>2020-09-20T11:16:35.581Z</time>
      </trkpt>
      <trkpt lat="67.38337" lon="21.08163">
        <ele>430.348697</ele>
        <time>2020-09-20T11:17:15.617Z</time>
      </trkpt>
      <trkpt lat="67.38171" lon="21.07876">
        <ele>424.106747</ele>
        <time>2020-09-20T11:17:55.586Z</time>
      </trkpt>
      <trkpt lat="67.37958" lon="21.07722">
        <ele>418.139833</ele>
        <time>2020-09-20T11:18:35.552Z</time>
      </trkpt>
      <trkpt lat="67.37749" lon="21.07732">
        <ele>420.68231</ele>
        <time>2020-09-20T11:19:24.573Z</time>
      </trkpt>
      <trkpt lat="67.37545" lon="21.07916">
        <ele>422.673095</ele>
        <time>2020-09-20T11:20:22.606Z</time>
      </trkpt>
      <trkpt lat="67.37373" lon="21.08252">
        <ele>420.958389</ele>
        <time>2020-09-20T11:21:11.609Z</time>
      </trkpt>
      <trkpt lat="67.37186" lon="21.08579">
        <ele>420.387739</ele>
        <time>2020-09-20T11:22:02.605Z</time>
      </trkpt>
      <trkpt lat="67.36984" lon="21.08824">
        <ele>417.557251</ele>
        <time>2020-09-20T11:22:42.600Z</time>
      </trkpt>
      <trkpt lat="67.3682" lon="21.09123">
        <ele>419.250974</ele>
        <time>2020-09-20T11:23:22.561Z</time>
      </trkpt>
      <trkpt lat="67.36624" lon="21.0936">
        <ele>425.762788</ele>
        <time>2020-09-20T11:24:23.569Z</time>
      </trkpt>
      <trkpt lat="67.36396" lon="21.09469">
        <ele>425.727532</ele>
        <time>2020-09-20T11:25:14.570Z</time>
      </trkpt>
      <trkpt lat="67.3618" lon="21.095">
        <ele>423.926609</ele>
        <time>2020-09-20T11:26:01.556Z</time>
      </trkpt>
      <trkpt lat="67.35971" lon="21.09539">
        <ele>428.148187</ele>
        <time>2020-09-20T11:26:48.570Z</time>
      </trkpt>
      <trkpt lat="67.35765" lon="21.0963">
        <ele>430.006762</ele>
        <time>2020-09-20T11:27:49.570Z</time>
      </trkpt>
      <trkpt lat="67.35568" lon="21.0972">
        <ele>438.00637</ele>
        <time>2020-09-20T11:29:10.588Z</time>
      </trkpt>
      <trkpt lat="67.35369" lon="21.09748">
        <ele>445.672363</ele>
        <time>2020-09-20T11:30:42.565Z</time>
      </trkpt>
      <trkpt lat="67.35175" lon="21.09675">
        <ele>453.062021</ele>
        <time>2020-09-20T11:32:25.559Z</time>
      </trkpt>
      <trkpt lat="67.34986" lon="21.09534">
        <ele>458.204522</ele>
        <time>2020-09-20T11:33:53.560Z</time>
      </trkpt>
      <trkpt lat="67.34788" lon="21.09438">
        <ele>464.618057</ele>
        <time>2020-09-20T11:35:25.576Z</time>
      </trkpt>
      <trkpt lat="67.3459" lon="21.0942">
        <ele>472.82903</ele>
        <time>2020-09-20T11:37:01.571Z</time>
      </trkpt>
      <trkpt lat="67.34363" lon="21.09482">
        <ele>470.407892</ele>
        <time>2020-09-20T11:37:59.567Z</time>
      </trkpt>
      <trkpt lat="67.34153" lon="21.09425">
        <ele>467.158271</ele>
        <time>2020-09-20T11:38:41.559Z</time>
      </trkpt>
      <trkpt lat="67.3396" lon="21.0922">
        <ele>470.521736</ele>
        <time>2020-09-20T11:39:21.600Z</time>
      </trkpt>
      <trkpt lat="67.33799" lon="21.08874">
        <ele>471.285523</ele>
        <time>2020-09-20T11:40:32.574Z</time>
      </trkpt>
      <trkpt lat="67.33659" lon="21.08497">
        <ele>474.323962</ele>
        <time>2020-09-20T11:41:38.565Z</time>
      </trkpt>
      <trkpt lat="67.33494" lon="21.08185">
        <ele>479.06659</ele>
        <time>2020-09-20T11:42:58.564Z</time>
      </trkpt>
      <trkpt lat="67.3331" lon="21.07989">
        <ele>480.070686</ele>
        <time>2020-09-20T11:44:05.576Z</time>
      </trkpt>
      <trkpt lat="67.33099" lon="21.0788">
        <ele>479.575696</ele>
        <time>2020-09-20T11:45:23.578Z</time>
      </trkpt>
      <trkpt lat="67.32895" lon="21.07841">
        <ele>481.836976</ele>
        <time>2020-09-20T11:46:35.598Z</time>
      </trkpt>
      <trkpt lat="67.32657" lon="21.07982">
        <ele>482.904257</ele>
        <time>2020-09-20T11:47:38.566Z</time>
      </trkpt>
      <trkpt lat="67.32447" lon="21.08202">
        <ele>486.499163</ele>
        <time>2020-09-20T11:48:38.588Z</time>
      </trkpt>
      <trkpt lat="67.32252" lon="21.08281">
        <ele>487.756089</ele>
        <time>2020-09-20T11:49:57.583Z</time>
      </trkpt>
      <trkpt lat="67.32025" lon="21.08228">
        <ele>486.427301</ele>
        <time>2020-09-20T11:50:59.576Z</time>
      </trkpt>
      <trkpt lat="67.31823" lon="21.08168">
        <ele>489.513523</ele>
        <time>2020-09-20T11:52:01.582Z</time>
      </trkpt>
      <trkpt lat="67.31615" lon="21.08112">
        <ele>494.67838</ele>
        <time>2020-09-20T11:53:13.572Z</time>
      </trkpt>
      <trkpt lat="67.31377" lon="21.08101">
        <ele>491.545548</ele>
        <time>2020-09-20T11:54:11.577Z</time>
      </trkpt>
      <trkpt lat="67.31157" lon="21.08137">
        <ele>493.269378</ele>
        <time>2020-09-20T11:55:19.574Z</time>
      </trkpt>
      <trkpt lat="67.30956" lon="21.08223">
        <ele>508.725109</ele>
        <time>2020-09-20T11:56:56.574Z</time>
      </trkpt>
      <trkpt lat="67.3074" lon="21.08333">
        <ele>512.623194</ele>
        <time>2020-09-20T11:58:07.566Z</time>
      </trkpt>
      <trkpt lat="67.30514" lon="21.08428">
        <ele>501.916313</ele>
        <time>2020-09-20T11:58:52.576Z</time>
      </trkpt>
      <trkpt lat="67.30296" lon="21.08445">
        <ele>500.275954</ele>
        <time>2020-09-20T11:59:38.569Z</time>
      </trkpt>
      <trkpt lat="67.30097" lon="21.08402">
        <ele>504.698262</ele>
        <time>2020-09-20T12:00:42.575Z</time>
      </trkpt>
      <trkpt lat="67.29887" lon="21.08299">
        <ele>505.322825</ele>
        <time>2020-09-20T12:01:31.574Z</time>
      </trkpt>
      <trkpt lat="67.29677" lon="21.08184">
        <ele>507.789239</ele>
        <time>2020-09-20T12:02:17.564Z</time>
      </trkpt>
      <trkpt lat="67.29474" lon="21.08071">
        <ele>512.5734</ele>
        <time>2020-09-20T12:03:33.617Z</time>
      </trkpt>
      <trkpt lat="67.29281" lon="21.07967">
        <ele>519.354946</ele>
        <time>2020-09-20T12:04:54.573Z</time>
      </trkpt>
      <trkpt lat="67.29091" lon="21.07838">
        <ele>528.462098</ele>
        <time>2020-09-20T12:06:26.571Z</time>
      </trkpt>
      <trkpt lat="67.28906" lon="21.07652">
        <ele>539.538616</ele>
        <time>2020-09-20T12:08:07.567Z</time>
      </trkpt>
      <trkpt lat="67.28714" lon="21.07391">
        <ele>542.84419</ele>
        <time>2020-09-20T12:09:39.583Z</time>
      </trkpt>
      <trkpt lat="67.28539" lon="21.07081">
        <ele>540.919278</ele>
        <time>2020-09-20T12:10:33.571Z</time>
      </trkpt>
      <trkpt lat="67.28377" lon="21.06713">
        <ele>533.456889</ele>
        <time>2020-09-20T12:11:13.564Z</time>
      </trkpt>
      <trkpt lat="67.28211" lon="21.06303">
        <ele>524.963115</ele>
        <time>2020-09-20T12:11:53.568Z</time>
      </trkpt>
      <trkpt lat="67.28061" lon="21.05933">
        <ele>524.669667</ele>
        <time>2020-09-20T12:12:33.611Z</time>
      </trkpt>
      <trkpt lat="67.279" lon="21.05542">
        <ele>526.481852</ele>
        <time>2020-09-20T12:13:25.570Z</time>
      </trkpt>
      <trkpt lat="67.27739" lon="21.05169">
        <ele>530.578166</ele>
        <time>2020-09-20T12:14:39.568Z</time>
      </trkpt>
      <trkpt lat="67.27572" lon="21.04825">
        <ele>539.149229</ele>
        <time>2020-09-20T12:15:59.577Z</time>
      </trkpt>
      <trkpt lat="67.27402" lon="21.04506">
        <ele>541.474539</ele>
        <time>2020-09-20T12:17:07.585Z</time>
      </trkpt>
      <trkpt lat="67.27215" lon="21.04185">
        <ele>539.240968</ele>
        <time>2020-09-20T12:17:52.580Z</time>
      </trkpt>
      <trkpt lat="67.26949" lon="21.03787">
        <ele>529.205342</ele>
        <time>2020-09-20T12:18:31.582Z</time>
      </trkpt>
      <trkpt lat="67.2674" lon="21.03508">
        <ele>520.434359</ele>
        <time>2020-09-20T12:18:57.584Z</time>
      </trkpt>
      <trkpt lat="67.26517" lon="21.0322">
        <ele>515.099134</ele>
        <time>2020-09-20T12:19:37.580Z</time>
      </trkpt>
      <trkpt lat="67.26257" lon="21.02949">
        <ele>507.655499</ele>
        <time>2020-09-20T12:20:17.598Z</time>
      </trkpt>
      <trkpt lat="67.26034" lon="21.02765">
        <ele>497.517543</ele>
        <time>2020-09-20T12:20:42.571Z</time>
      </trkpt>
      <trkpt lat="67.25832" lon="21.026">
        <ele>487.065295</ele>
        <time>2020-09-20T12:21:02.572Z</time>
      </trkpt>
      <trkpt lat="67.25605" lon="21.02423">
        <ele>480.078894</ele>
        <time>2020-09-20T12:21:37.593Z</time>
      </trkpt>
      <trkpt lat="67.25391" lon="21.02233">
        <ele>483.721072</ele>
        <time>2020-09-20T12:22:36.580Z</time>
      </trkpt>
      <trkpt lat="67.25187" lon="21.01995">
        <ele>484.208845</ele>
        <time>2020-09-20T12:23:36.611Z</time>
      </trkpt>
      <trkpt lat="67.25011" lon="21.01711">
        <ele>480.198755</ele>
        <time>2020-09-20T12:38:50.644Z</time>
      </trkpt>
      <trkpt lat="67.24842" lon="21.01365">
        <ele>477.784925</ele>
        <time>2020-09-20T12:39:33.602Z</time>
      </trkpt>
      <trkpt lat="67.2468" lon="21.01008">
        <ele>475.064523</ele>
        <time>2020-09-20T12:40:13.599Z</time>
      </trkpt>
      <trkpt lat="67.24518" lon="21.00657">
        <ele>471.315652</ele>
        <time>2020-09-20T12:40:53.578Z</time>
      </trkpt>
      <trkpt lat="67.24338" lon="21.00369">
        <ele>468.752736</ele>
        <time>2020-09-20T12:41:33.572Z</time>
      </trkpt>
      <trkpt lat="67.24058" lon="21.00166">
        <ele>461.51257</ele>
        <time>2020-09-20T12:42:13.608Z</time>
      </trkpt>
      <trkpt lat="67.23722" lon="21.0023">
        <ele>447.980208</ele>
        <time>2020-09-20T12:42:53.624Z</time>
      </trkpt>
      <trkpt lat="67.23501" lon="21.00345">
        <ele>438.13191</ele>
        <time>2020-09-20T12:43:18.584Z</time>
      </trkpt>
      <trkpt lat="67.23317" lon="21.00441">
        <ele>430.096703</ele>
        <time>2020-09-20T12:43:38.622Z</time>
      </trkpt>
      <trkpt lat="67.23045" lon="21.00578">
        <ele>422.260805</ele>
        <time>2020-09-20T12:44:14.618Z</time>
      </trkpt>
      <trkpt lat="67.22815" lon="21.00706">
        <ele>422.12695</ele>
        <time>2020-09-20T12:44:54.638Z</time>
      </trkpt>
      <trkpt lat="67.22578" lon="21.00985">
        <ele>421.756024</ele>
        <time>2020-09-20T12:45:34.611Z</time>
      </trkpt>
      <trkpt lat="67.22316" lon="21.01426">
        <ele>413.375495</ele>
        <time>2020-09-20T12:46:14.583Z</time>
      </trkpt>
      <trkpt lat="67.22081" lon="21.01697">
        <ele>409.966771</ele>
        <time>2020-09-20T12:46:54.589Z</time>
      </trkpt>
      <trkpt lat="67.21875" lon="21.01833">
        <ele>410.111804</ele>
        <time>2020-09-20T12:47:34.585Z</time>
      </trkpt>
      <trkpt lat="67.21667" lon="21.01917">
        <ele>413.532962</ele>
        <time>2020-09-20T12:48:23.616Z</time>
      </trkpt>
      <trkpt lat="67.21467" lon="21.01926">
        <ele>422.971662</ele>
        <time>2020-09-20T12:49:45.618Z</time>
      </trkpt>
      <trkpt lat="67.21269" lon="21.01815">
        <ele>432.117449</ele>
        <time>2020-09-20T12:51:13.586Z</time>
      </trkpt>
      <trkpt lat="67.2108" lon="21.01582">
        <ele>434.577419</ele>
        <time>2020-09-20T12:52:32.589Z</time>
      </trkpt>
      <trkpt lat="67.20918" lon="21.01244">
        <ele>430.704653</ele>
        <time>2020-09-20T12:53:20.592Z</time>
      </trkpt>
      <trkpt lat="67.2078" lon="21.00796">
        <ele>429.322689</ele>
        <time>2020-09-20T12:54:10.593Z</time>
      </trkpt>
      <trkpt lat="67.20657" lon="21.00354">
        <ele>433.106686</ele>
        <time>2020-09-20T12:55:18.637Z</time>
      </trkpt>
      <trkpt lat="67.20531" lon="20.99901">
        <ele>435.837551</ele>
        <time>2020-09-20T12:56:33.627Z</time>
      </trkpt>
      <trkpt lat="67.20415" lon="20.99484">
        <ele>435.578253</ele>
        <time>2020-09-20T12:57:39.662Z</time>
      </trkpt>
      <trkpt lat="67.20282" lon="20.99026">
        <ele>436.274701</ele>
        <time>2020-09-20T13:00:51.636Z</time>
      </trkpt>
      <trkpt lat="67.20144" lon="20.9862">
        <ele>439.369695</ele>
        <time>2020-09-20T13:01:51.599Z</time>
      </trkpt>
      <trkpt lat="67.19987" lon="20.98259">
        <ele>439.713789</ele>
        <time>2020-09-20T13:02:51.586Z</time>
      </trkpt>
      <trkpt lat="67.19796" lon="20.98033">
        <ele>439.369</ele>
        <time>2020-09-20T13:03:51.620Z</time>
      </trkpt>
      <trkpt lat="67.19587" lon="20.97908">
        <ele>443.615348</ele>
        <time>2020-09-20T13:04:51.602Z</time>
      </trkpt>
      <trkpt lat="67.19364" lon="20.97809">
        <ele>444.627096</ele>
        <time>2020-09-20T13:05:51.600Z</time>
      </trkpt>
      <trkpt lat="67.19161" lon="20.97697">
        <ele>437.890566</ele>
        <time>2020-09-20T13:06:32.632Z</time>
      </trkpt>
      <trkpt lat="67.18928" lon="20.97514">
        <ele>424.966143</ele>
        <time>2020-09-20T13:07:12.601Z</time>
      </trkpt>
      <trkpt lat="67.18723" lon="20.9733">
        <ele>413.490462</ele>
        <time>2020-09-20T13:07:53.604Z</time>
      </trkpt>
      <trkpt lat="67.18512" lon="20.9714">
        <ele>401.969185</ele>
        <time>2020-09-20T13:08:35.672Z</time>
      </trkpt>
      <trkpt lat="67.18293" lon="20.96931">
        <ele>393.520683</ele>
        <time>2020-09-20T13:09:15.591Z</time>
      </trkpt>
      <trkpt lat="67.18087" lon="20.96707">
        <ele>387.496147</ele>
        <time>2020-09-20T13:10:08.600Z</time>
      </trkpt>
      <trkpt lat="67.17903" lon="20.96446">
        <ele>378.67434</ele>
        <time>2020-09-20T13:10:55.594Z</time>
      </trkpt>
      <trkpt lat="67.17701" lon="20.96079">
        <ele>368.971656</ele>
        <time>2020-09-20T13:11:45.597Z</time>
      </trkpt>
      <trkpt lat="67.1746" lon="20.95619">
        <ele>358.131218</ele>
        <time>2020-09-20T13:12:25.590Z</time>
      </trkpt>
      <trkpt lat="67.17202" lon="20.95136">
        <ele>348.620029</ele>
        <time>2020-09-20T13:13:07.597Z</time>
      </trkpt>
      <trkpt lat="67.17015" lon="20.94782">
        <ele>347.08377</ele>
        <time>2020-09-20T13:13:47.596Z</time>
      </trkpt>
      <trkpt lat="67.16817" lon="20.94427">
        <ele>352.673872</ele>
        <time>2020-09-20T13:14:43.606Z</time>
      </trkpt>
      <trkpt lat="67.166" lon="20.94206">
        <ele>347.881627</ele>
        <time>2020-09-20T13:15:39.611Z</time>
      </trkpt>
      <trkpt lat="67.1637" lon="20.94123">
        <ele>342.966641</ele>
        <time>2020-09-20T13:16:19.594Z</time>
      </trkpt>
      <trkpt lat="67.16116" lon="20.94055">
        <ele>336.795496</ele>
        <time>2020-09-20T13:16:59.599Z</time>
      </trkpt>
      <trkpt lat="67.15887" lon="20.93898">
        <ele>335.2871</ele>
        <time>2020-09-20T13:17:39.633Z</time>
      </trkpt>
      <trkpt lat="67.15701" lon="20.9365">
        <ele>347.165829</ele>
        <time>2020-09-20T13:18:32.603Z</time>
      </trkpt>
      <trkpt lat="67.1554" lon="20.93329">
        <ele>349.708275</ele>
        <time>2020-09-20T13:19:36.593Z</time>
      </trkpt>
      <trkpt lat="67.15378" lon="20.92989">
        <ele>350.738199</ele>
        <time>2020-09-20T13:20:56.601Z</time>
      </trkpt>
      <trkpt lat="67.15224" lon="20.92674">
        <ele>361.398123</ele>
        <time>2020-09-20T13:22:16.603Z</time>
      </trkpt>
      <trkpt lat="67.15054" lon="20.92358">
        <ele>364.777324</ele>
        <time>2020-09-20T13:23:31.594Z</time>
      </trkpt>
      <trkpt lat="67.14875" lon="20.92042">
        <ele>358.491547</ele>
        <time>2020-09-20T13:24:21.641Z</time>
      </trkpt>
      <trkpt lat="67.14647" lon="20.91654">
        <ele>349.228184</ele>
        <time>2020-09-20T13:25:01.596Z</time>
      </trkpt>
      <trkpt lat="67.14453" lon="20.91327">
        <ele>344.841369</ele>
        <time>2020-09-20T13:25:41.598Z</time>
      </trkpt>
      <trkpt lat="67.14259" lon="20.91012">
        <ele>342.352502</ele>
        <time>2020-09-20T13:26:21.651Z</time>
      </trkpt>
      <trkpt lat="67.14013" lon="20.90702">
        <ele>336.270331</ele>
        <time>2020-09-20T13:27:01.588Z</time>
      </trkpt>
      <trkpt lat="67.13769" lon="20.90374">
        <ele>329.972899</ele>
        <time>2020-09-20T13:27:41.599Z</time>
      </trkpt>
      <trkpt lat="67.13816" lon="20.89821">
        <ele>318.784978</ele>
        <time>2020-09-20T13:28:21.646Z</time>
      </trkpt>
      <trkpt lat="67.13882" lon="20.89299">
        <ele>313.415505</ele>
        <time>2020-09-20T13:29:06.613Z</time>
      </trkpt>
      <trkpt lat="67.13967" lon="20.88711">
        <ele>310.092496</ele>
        <time>2020-09-20T13:30:06.634Z</time>
      </trkpt>
      <trkpt lat="67.14039" lon="20.88194">
        <ele>311.867077</ele>
        <time>2020-09-20T13:31:06.636Z</time>
      </trkpt>
      <trkpt lat="67.14103" lon="20.87678">
        <ele>320.895174</ele>
        <time>2020-09-20T13:32:06.613Z</time>
      </trkpt>
      <trkpt lat="67.14161" lon="20.87153">
        <ele>325.412905</ele>
        <time>2020-09-20T13:33:06.624Z</time>
      </trkpt>
      <trkpt lat="67.14219" lon="20.86614">
        <ele>322.409788</ele>
        <time>2020-09-20T13:34:06.604Z</time>
      </trkpt>
      <trkpt lat="67.14269" lon="20.86104">
        <ele>321.209256</ele>
        <time>2020-09-20T13:35:06.601Z</time>
      </trkpt>
      <trkpt lat="67.14328" lon="20.85567">
        <ele>323.113136</ele>
        <time>2020-09-20T13:36:21.617Z</time>
      </trkpt>
      <trkpt lat="67.14385" lon="20.85027">
        <ele>327.447088</ele>
        <time>2020-09-20T13:37:40.600Z</time>
      </trkpt>
      <trkpt lat="67.14445" lon="20.84484">
        <ele>339.376542</ele>
        <time>2020-09-20T13:38:58.599Z</time>
      </trkpt>
      <trkpt lat="67.145" lon="20.83983">
        <ele>343.454692</ele>
        <time>2020-09-20T13:40:05.601Z</time>
      </trkpt>
      <trkpt lat="67.14553" lon="20.83483">
        <ele>335.203997</ele>
        <time>2020-09-20T13:41:08.660Z</time>
      </trkpt>
      <trkpt lat="67.14606" lon="20.82998">
        <ele>331.517318</ele>
        <time>2020-09-20T13:42:09.597Z</time>
      </trkpt>
      <trkpt lat="67.14681" lon="20.82484">
        <ele>336.608728</ele>
        <time>2020-09-20T13:43:23.601Z</time>
      </trkpt>
      <trkpt lat="67.14765" lon="20.81984">
        <ele>338.174293</ele>
        <time>2020-09-20T13:44:39.606Z</time>
      </trkpt>
      <trkpt lat="67.14838" lon="20.81479">
        <ele>332.201796</ele>
        <time>2020-09-20T13:45:41.646Z</time>
      </trkpt>
      <trkpt lat="67.14885" lon="20.80938">
        <ele>326.974877</ele>
        <time>2020-09-20T13:46:34.617Z</time>
      </trkpt>
      <trkpt lat="67.14875" lon="20.80409">
        <ele>322.199419</ele>
        <time>2020-09-20T13:47:19.626Z</time>
      </trkpt>
      <trkpt lat="67.14827" lon="20.7985">
        <ele>326.873809</ele>
        <time>2020-09-20T13:48:09.613Z</time>
      </trkpt>
      <trkpt lat="67.1475" lon="20.79265">
        <ele>332.893071</ele>
        <time>2020-09-20T13:49:05.622Z</time>
      </trkpt>
      <trkpt lat="67.14653" lon="20.78718">
        <ele>331.397522</ele>
        <time>2020-09-20T13:49:58.615Z</time>
      </trkpt>
      <trkpt lat="67.14566" lon="20.78174">
        <ele>335.992696</ele>
        <time>2020-09-20T13:50:58.640Z</time>
      </trkpt>
      <trkpt lat="67.14492" lon="20.77617">
        <ele>337.850971</ele>
        <time>2020-09-20T13:51:58.602Z</time>
      </trkpt>
      <trkpt lat="67.14443" lon="20.77068">
        <ele>336.588553</ele>
        <time>2020-09-20T13:52:58.636Z</time>
      </trkpt>
      <trkpt lat="67.14405" lon="20.76544">
        <ele>339.500683</ele>
        <time>2020-09-20T13:54:00.599Z</time>
      </trkpt>
      <trkpt lat="67.14377" lon="20.75988">
        <ele>343.173196</ele>
        <time>2020-09-20T13:55:16.560Z</time>
      </trkpt>
      <trkpt lat="67.14366" lon="20.75429">
        <ele>356.042725</ele>
        <time>2020-09-20T13:56:35.565Z</time>
      </trkpt>
      <trkpt lat="67.1438" lon="20.74864">
        <ele>362.439864</ele>
        <time>2020-09-20T13:57:54.554Z</time>
      </trkpt>
      <trkpt lat="67.14394" lon="20.74299">
        <ele>357.478809</ele>
        <time>2020-09-20T13:59:14.573Z</time>
      </trkpt>
      <trkpt lat="67.14409" lon="20.73742">
        <ele>360.297764</ele>
        <time>2020-09-20T14:00:34.546Z</time>
      </trkpt>
      <trkpt lat="67.14401" lon="20.73241">
        <ele>364.067507</ele>
        <time>2020-09-20T14:01:54.566Z</time>
      </trkpt>
      <trkpt lat="67.14368" lon="20.72732">
        <ele>371.309158</ele>
        <time>2020-09-20T14:03:14.560Z</time>
      </trkpt>
      <trkpt lat="67.14309" lon="20.72221">
        <ele>369.056613</ele>
        <time>2020-09-20T14:04:28.583Z</time>
      </trkpt>
      <trkpt lat="67.1423" lon="20.71748">
        <ele>371.252357</ele>
        <time>2020-09-20T14:05:34.569Z</time>
      </trkpt>
      <trkpt lat="67.14131" lon="20.71297">
        <ele>380.639412</ele>
        <time>2020-09-20T14:07:00.550Z</time>
      </trkpt>
      <trkpt lat="67.14048" lon="20.70827">
        <ele>380.506417</ele>
        <time>2020-09-20T14:09:24.590Z</time>
      </trkpt>
      <trkpt lat="67.14029" lon="20.70279">
        <ele>378.883976</ele>
        <time>2020-09-20T14:10:24.561Z</time>
      </trkpt>
      <trkpt lat="67.14014" lon="20.69759">
        <ele>379.840495</ele>
        <time>2020-09-20T14:11:23.567Z</time>
      </trkpt>
      <trkpt lat="67.1401" lon="20.69205">
        <ele>377.988583</ele>
        <time>2020-09-20T14:12:15.587Z</time>
      </trkpt>
      <trkpt lat="67.13898" lon="20.68886">
        <ele>381.417856</ele>
        <time>2020-09-20T14:13:28.559Z</time>
      </trkpt>
      <trkpt lat="67.13707" lon="20.68841">
        <ele>395.750587</ele>
        <time>2020-09-20T14:15:37.614Z</time>
      </trkpt>
      <trkpt lat="67.13689" lon="20.68324">
        <ele>396.938607</ele>
        <time>2020-09-20T14:16:51.589Z</time>
      </trkpt>
      <trkpt lat="67.13542" lon="20.67999">
        <ele>381.929745</ele>
        <time>2020-09-20T14:18:10.587Z</time>
      </trkpt>
      <trkpt lat="67.13371" lon="20.67771">
        <ele>377.778541</ele>
        <time>2020-09-20T14:35:07.576Z</time>
      </trkpt>
      <trkpt lat="67.13316" lon="20.67283">
        <ele>382.163394</ele>
        <time>2020-09-20T14:36:10.561Z</time>
      </trkpt>
      <trkpt lat="67.13134" lon="20.67169">
        <ele>378.76801</ele>
        <time>2020-09-20T14:37:15.566Z</time>
      </trkpt>
      <trkpt lat="67.12939" lon="20.67147">
        <ele>379.07464</ele>
        <time>2020-09-20T14:38:08.606Z</time>
      </trkpt>
      <trkpt lat="67.12763" lon="20.67414">
        <ele>383.079031</ele>
        <time>2020-09-20T14:41:38.587Z</time>
      </trkpt>
    </trkseg>
  </trk>
</gpx>